sensor_id;sensor_type;location;lat;lon;timestamp;temperature;humidity
25334;DHT22;24559;53.590;9.764;2023-04-16T00:02:19;11.40;99.90
25334;DHT22;24559;53.590;9.764;2023-04-16T00:04:45;11.40;99.90
25334;DHT22;24559;53.590;9.764;2023-04-16T00:07:11;11.30;99.90
25334;DHT22;24559;53.590;9.764;2023-04-16T00:09:36;11.30;99.90
25334;DHT22;24559;53.590;9.764;2023-04-16T00:12:02;11.40;99.90
25334;DHT22;24559;53.590;9.764;2023-04-16T00:14:28;11.40;99.90
25334;DHT22;24559;53.590;9.764;2023-04-16T00:16:54;11.40;99.90
25334;DHT22;24559;53.590;9.764;2023-04-16T00:19:20;11.40;99.90
25334;DHT22;24559;53.590;9.764;2023-04-16T00:21:46;11.40;99.90
25334;DHT22;24559;53.590;9.764;2023-04-16T00:24:11;11.20;99.90
25334;DHT22;24559;53.590;9.764;2023-04-16T00:26:37;11.10;99.90
25334;DHT22;24559;53.590;9.764;2023-04-16T00:29:03;11.10;99.90
25334;DHT22;24559;53.590;9.764;2023-04-16T00:31:29;11.10;99.90
25334;DHT22;24559;53.590;9.764;2023-04-16T00:33:55;11.20;99.90
25334;DHT22;24559;53.590;9.764;2023-04-16T00:36:24;11.10;99.90
25334;DHT22;24559;53.590;9.764;2023-04-16T00:38:50;11.10;99.90
25334;DHT22;24559;53.590;9.764;2023-04-16T00:41:19;11.10;99.90
25334;DHT22;24559;53.590;9.764;2023-04-16T00:43:45;11.20;99.90
25334;DHT22;24559;53.590;9.764;2023-04-16T00:46:11;11.20;99.90
25334;DHT22;24559;53.590;9.764;2023-04-16T00:48:37;11.20;99.90
25334;DHT22;24559;53.590;9.764;2023-04-16T00:51:04;11.20;99.90
25334;DHT22;24559;53.590;9.764;2023-04-16T00:53:30;11.10;99.90
25334;DHT22;24559;53.590;9.764;2023-04-16T00:55:55;11.00;99.90
25334;DHT22;24559;53.590;9.764;2023-04-16T00:58:21;11.10;99.90
25334;DHT22;24559;53.590;9.764;2023-04-16T01:00:47;11.10;99.90
25334;DHT22;24559;53.590;9.764;2023-04-16T01:03:13;11.20;99.90
25334;DHT22;24559;53.590;9.764;2023-04-16T01:05:38;11.10;99.90
25334;DHT22;24559;53.590;9.764;2023-04-16T01:08:05;11.10;99.90
25334;DHT22;24559;53.590;9.764;2023-04-16T01:10:30;11.10;99.90
25334;DHT22;24559;53.590;9.764;2023-04-16T01:12:56;11.10;99.90
25334;DHT22;24559;53.590;9.764;2023-04-16T01:15:22;11.00;99.90
25334;DHT22;24559;53.590;9.764;2023-04-16T01:17:47;11.70;99.90
25334;DHT22;24559;53.590;9.764;2023-04-16T01:20:13;11.00;99.90
25334;DHT22;24559;53.590;9.764;2023-04-16T01:22:39;11.00;99.90
25334;DHT22;24559;53.590;9.764;2023-04-16T01:25:04;11.00;99.90
25334;DHT22;24559;53.590;9.764;2023-04-16T01:27:30;11.00;99.90
25334;DHT22;24559;53.590;9.764;2023-04-16T01:29:56;11.00;99.90
25334;DHT22;24559;53.590;9.764;2023-04-16T01:32:33;11.50;99.90
25334;DHT22;24559;53.590;9.764;2023-04-16T01:34:59;11.00;99.90
25334;DHT22;24559;53.590;9.764;2023-04-16T01:37:25;11.00;99.90
25334;DHT22;24559;53.590;9.764;2023-04-16T01:39:51;11.00;99.90
25334;DHT22;24559;53.590;9.764;2023-04-16T01:42:16;11.00;99.90
25334;DHT22;24559;53.590;9.764;2023-04-16T01:44:42;11.00;99.90
25334;DHT22;24559;53.590;9.764;2023-04-16T01:47:08;11.00;99.90
25334;DHT22;24559;53.590;9.764;2023-04-16T01:49:33;11.00;99.90
25334;DHT22;24559;53.590;9.764;2023-04-16T01:51:59;11.00;99.90
25334;DHT22;24559;53.590;9.764;2023-04-16T01:54:25;11.10;99.90
25334;DHT22;24559;53.590;9.764;2023-04-16T01:56:51;11.10;99.90
25334;DHT22;24559;53.590;9.764;2023-04-16T01:59:16;11.00;99.90
25334;DHT22;24559;53.590;9.764;2023-04-16T02:01:42;11.00;99.90
25334;DHT22;24559;53.590;9.764;2023-04-16T02:04:08;11.10;99.90
25334;DHT22;24559;53.590;9.764;2023-04-16T02:06:34;11.10;99.90
25334;DHT22;24559;53.590;9.764;2023-04-16T02:09:00;11.20;99.90
25334;DHT22;24559;53.590;9.764;2023-04-16T02:11:26;11.10;99.90
25334;DHT22;24559;53.590;9.764;2023-04-16T02:13:52;11.10;99.90
25334;DHT22;24559;53.590;9.764;2023-04-16T02:16:18;11.10;99.90
25334;DHT22;24559;53.590;9.764;2023-04-16T02:18:53;11.10;99.90
25334;DHT22;24559;53.590;9.764;2023-04-16T02:21:21;11.10;99.90
25334;DHT22;24559;53.590;9.764;2023-04-16T02:23:47;11.10;99.90
25334;DHT22;24559;53.590;9.764;2023-04-16T02:26:17;11.10;99.90
25334;DHT22;24559;53.590;9.764;2023-04-16T02:28:44;11.10;99.90
25334;DHT22;24559;53.590;9.764;2023-04-16T02:31:12;11.50;99.90
25334;DHT22;24559;53.590;9.764;2023-04-16T02:33:42;11.20;99.90
25334;DHT22;24559;53.590;9.764;2023-04-16T02:36:08;11.20;99.90
25334;DHT22;24559;53.590;9.764;2023-04-16T02:38:35;11.20;99.90
25334;DHT22;24559;53.590;9.764;2023-04-16T02:41:01;11.20;99.90
25334;DHT22;24559;53.590;9.764;2023-04-16T02:43:30;11.10;99.90
25334;DHT22;24559;53.590;9.764;2023-04-16T02:45:56;11.10;99.90
25334;DHT22;24559;53.590;9.764;2023-04-16T02:48:23;11.10;99.90
25334;DHT22;24559;53.590;9.764;2023-04-16T02:50:49;11.10;99.90
25334;DHT22;24559;53.590;9.764;2023-04-16T02:53:15;11.20;99.90
25334;DHT22;24559;53.590;9.764;2023-04-16T02:55:41;11.10;99.90
25334;DHT22;24559;53.590;9.764;2023-04-16T02:58:06;11.10;99.90
25334;DHT22;24559;53.590;9.764;2023-04-16T03:00:32;11.10;99.90
25334;DHT22;24559;53.590;9.764;2023-04-16T03:02:58;11.10;99.90
25334;DHT22;24559;53.590;9.764;2023-04-16T03:05:24;11.20;99.90
25334;DHT22;24559;53.590;9.764;2023-04-16T03:07:49;11.20;99.90
25334;DHT22;24559;53.590;9.764;2023-04-16T03:10:20;11.10;99.90
25334;DHT22;24559;53.590;9.764;2023-04-16T03:12:46;11.10;99.90
25334;DHT22;24559;53.590;9.764;2023-04-16T03:15:12;11.00;99.90
25334;DHT22;24559;53.590;9.764;2023-04-16T03:17:37;11.10;99.90
25334;DHT22;24559;53.590;9.764;2023-04-16T03:20:03;11.10;99.90
25334;DHT22;24559;53.590;9.764;2023-04-16T03:22:29;11.10;99.90
25334;DHT22;24559;53.590;9.764;2023-04-16T03:24:55;11.00;99.90
25334;DHT22;24559;53.590;9.764;2023-04-16T03:27:21;11.10;99.90
25334;DHT22;24559;53.590;9.764;2023-04-16T03:29:47;11.10;99.90
25334;DHT22;24559;53.590;9.764;2023-04-16T03:32:13;11.20;99.90
25334;DHT22;24559;53.590;9.764;2023-04-16T03:34:39;11.20;99.90
25334;DHT22;24559;53.590;9.764;2023-04-16T03:37:05;11.80;99.90
25334;DHT22;24559;53.590;9.764;2023-04-16T03:39:31;11.20;99.90
25334;DHT22;24559;53.590;9.764;2023-04-16T03:41:57;11.70;99.90
25334;DHT22;24559;53.590;9.764;2023-04-16T03:44:23;11.10;99.90
25334;DHT22;24559;53.590;9.764;2023-04-16T03:46:49;11.10;99.90
25334;DHT22;24559;53.590;9.764;2023-04-16T03:49:14;11.60;99.90
25334;DHT22;24559;53.590;9.764;2023-04-16T03:51:40;11.20;99.90
25334;DHT22;24559;53.590;9.764;2023-04-16T03:54:06;11.70;99.90
25334;DHT22;24559;53.590;9.764;2023-04-16T03:56:32;11.10;99.90
25334;DHT22;24559;53.590;9.764;2023-04-16T03:58:58;11.10;99.90
25334;DHT22;24559;53.590;9.764;2023-04-16T04:01:23;11.10;99.90
25334;DHT22;24559;53.590;9.764;2023-04-16T04:03:50;11.20;99.90
25334;DHT22;24559;53.590;9.764;2023-04-16T04:06:16;11.10;99.90
25334;DHT22;24559;53.590;9.764;2023-04-16T04:08:41;11.20;99.90
25334;DHT22;24559;53.590;9.764;2023-04-16T04:11:07;11.20;99.90
25334;DHT22;24559;53.590;9.764;2023-04-16T04:13:34;11.20;99.90
25334;DHT22;24559;53.590;9.764;2023-04-16T04:16:01;11.20;99.90
25334;DHT22;24559;53.590;9.764;2023-04-16T04:18:28;10.30;99.90
25334;DHT22;24559;53.590;9.764;2023-04-16T04:20:53;11.30;99.90
25334;DHT22;24559;53.590;9.764;2023-04-16T04:23:23;11.30;99.90
25334;DHT22;24559;53.590;9.764;2023-04-16T04:25:49;11.30;99.90
25334;DHT22;24559;53.590;9.764;2023-04-16T04:28:14;11.60;99.90
25334;DHT22;24559;53.590;9.764;2023-04-16T04:30:40;11.30;99.90
25334;DHT22;24559;53.590;9.764;2023-04-16T04:33:06;11.30;99.90
25334;DHT22;24559;53.590;9.764;2023-04-16T04:35:32;11.30;99.90
25334;DHT22;24559;53.590;9.764;2023-04-16T04:37:59;11.30;99.90
25334;DHT22;24559;53.590;9.764;2023-04-16T04:40:26;11.30;99.90
25334;DHT22;24559;53.590;9.764;2023-04-16T04:42:52;11.30;99.90
25334;DHT22;24559;53.590;9.764;2023-04-16T04:45:20;11.30;99.90
25334;DHT22;24559;53.590;9.764;2023-04-16T04:47:51;11.20;99.90
25334;DHT22;24559;53.590;9.764;2023-04-16T04:50:20;11.20;99.90
25334;DHT22;24559;53.590;9.764;2023-04-16T04:52:46;11.20;99.90
25334;DHT22;24559;53.590;9.764;2023-04-16T04:55:12;11.20;99.90
25334;DHT22;24559;53.590;9.764;2023-04-16T04:57:40;11.20;99.90
25334;DHT22;24559;53.590;9.764;2023-04-16T05:00:07;11.10;99.90
25334;DHT22;24559;53.590;9.764;2023-04-16T05:02:42;11.20;99.90
25334;DHT22;24559;53.590;9.764;2023-04-16T05:05:09;11.20;99.90
25334;DHT22;24559;53.590;9.764;2023-04-16T05:07:35;11.20;99.90
25334;DHT22;24559;53.590;9.764;2023-04-16T05:10:00;11.20;99.90
25334;DHT22;24559;53.590;9.764;2023-04-16T05:12:26;11.20;99.90
25334;DHT22;24559;53.590;9.764;2023-04-16T05:14:52;11.30;99.90
25334;DHT22;24559;53.590;9.764;2023-04-16T05:17:18;11.30;99.90
25334;DHT22;24559;53.590;9.764;2023-04-16T05:19:44;11.30;99.90
25334;DHT22;24559;53.590;9.764;2023-04-16T05:22:10;11.20;99.90
25334;DHT22;24559;53.590;9.764;2023-04-16T05:24:35;11.20;99.90
25334;DHT22;24559;53.590;9.764;2023-04-16T05:27:01;11.10;99.90
25334;DHT22;24559;53.590;9.764;2023-04-16T05:29:27;11.20;99.90
25334;DHT22;24559;53.590;9.764;2023-04-16T05:31:52;11.20;99.90
25334;DHT22;24559;53.590;9.764;2023-04-16T05:34:19;11.30;99.90
25334;DHT22;24559;53.590;9.764;2023-04-16T05:36:45;11.40;99.90
25334;DHT22;24559;53.590;9.764;2023-04-16T05:39:11;11.40;99.90
25334;DHT22;24559;53.590;9.764;2023-04-16T05:41:37;11.40;99.90
25334;DHT22;24559;53.590;9.764;2023-04-16T05:44:04;11.40;99.90
25334;DHT22;24559;53.590;9.764;2023-04-16T05:46:29;11.50;99.90
25334;DHT22;24559;53.590;9.764;2023-04-16T05:48:55;11.90;99.90
25334;DHT22;24559;53.590;9.764;2023-04-16T05:51:21;11.40;99.90
25334;DHT22;24559;53.590;9.764;2023-04-16T05:53:49;11.40;99.90
25334;DHT22;24559;53.590;9.764;2023-04-16T05:56:15;11.40;99.90
25334;DHT22;24559;53.590;9.764;2023-04-16T05:58:41;11.40;99.90
25334;DHT22;24559;53.590;9.764;2023-04-16T06:01:07;11.50;99.90
25334;DHT22;24559;53.590;9.764;2023-04-16T06:03:33;11.50;99.90
25334;DHT22;24559;53.590;9.764;2023-04-16T06:05:59;11.50;99.90
25334;DHT22;24559;53.590;9.764;2023-04-16T06:08:24;11.50;99.90
25334;DHT22;24559;53.590;9.764;2023-04-16T06:10:50;11.50;99.90
25334;DHT22;24559;53.590;9.764;2023-04-16T06:13:15;12.20;99.90
25334;DHT22;24559;53.590;9.764;2023-04-16T06:15:41;11.70;99.90
25334;DHT22;24559;53.590;9.764;2023-04-16T06:18:08;11.60;99.90
25334;DHT22;24559;53.590;9.764;2023-04-16T06:20:34;11.70;99.90
25334;DHT22;24559;53.590;9.764;2023-04-16T06:23:00;11.70;99.90
25334;DHT22;24559;53.590;9.764;2023-04-16T06:25:25;11.80;99.90
25334;DHT22;24559;53.590;9.764;2023-04-16T06:27:51;11.80;99.90
25334;DHT22;24559;53.590;9.764;2023-04-16T06:30:17;11.90;99.90
25334;DHT22;24559;53.590;9.764;2023-04-16T06:32:44;11.90;99.90
25334;DHT22;24559;53.590;9.764;2023-04-16T06:35:10;11.90;99.90
25334;DHT22;24559;53.590;9.764;2023-04-16T06:37:39;12.00;99.90
25334;DHT22;24559;53.590;9.764;2023-04-16T06:40:05;12.10;99.90
25334;DHT22;24559;53.590;9.764;2023-04-16T06:42:32;12.10;99.90
25334;DHT22;24559;53.590;9.764;2023-04-16T06:44:58;12.10;99.90
25334;DHT22;24559;53.590;9.764;2023-04-16T06:47:23;12.10;99.90
25334;DHT22;24559;53.590;9.764;2023-04-16T06:49:51;12.20;99.90
25334;DHT22;24559;53.590;9.764;2023-04-16T06:52:25;12.20;99.90
25334;DHT22;24559;53.590;9.764;2023-04-16T06:54:51;12.30;99.90
25334;DHT22;24559;53.590;9.764;2023-04-16T06:57:17;12.40;99.90
25334;DHT22;24559;53.590;9.764;2023-04-16T06:59:42;12.50;99.90
25334;DHT22;24559;53.590;9.764;2023-04-16T07:02:09;12.50;99.90
25334;DHT22;24559;53.590;9.764;2023-04-16T07:04:35;12.50;99.90
25334;DHT22;24559;53.590;9.764;2023-04-16T07:07:01;12.50;99.90
25334;DHT22;24559;53.590;9.764;2023-04-16T07:09:26;12.40;99.90
25334;DHT22;24559;53.590;9.764;2023-04-16T07:11:53;12.40;99.90
25334;DHT22;24559;53.590;9.764;2023-04-16T07:14:20;12.50;99.90
25334;DHT22;24559;53.590;9.764;2023-04-16T07:16:45;12.50;99.90
25334;DHT22;24559;53.590;9.764;2023-04-16T07:19:11;12.40;99.90
25334;DHT22;24559;53.590;9.764;2023-04-16T07:21:37;12.50;99.90
25334;DHT22;24559;53.590;9.764;2023-04-16T07:24:03;12.60;99.90
25334;DHT22;24559;53.590;9.764;2023-04-16T07:26:29;12.60;99.90
25334;DHT22;24559;53.590;9.764;2023-04-16T07:28:54;12.60;99.90
25334;DHT22;24559;53.590;9.764;2023-04-16T07:31:20;12.60;99.90
25334;DHT22;24559;53.590;9.764;2023-04-16T07:33:46;12.60;99.90
25334;DHT22;24559;53.590;9.764;2023-04-16T07:36:12;12.70;99.90
25334;DHT22;24559;53.590;9.764;2023-04-16T07:38:38;12.80;99.90
25334;DHT22;24559;53.590;9.764;2023-04-16T07:41:04;12.70;99.90
25334;DHT22;24559;53.590;9.764;2023-04-16T07:43:30;12.80;99.90
25334;DHT22;24559;53.590;9.764;2023-04-16T07:45:55;12.90;99.90
25334;DHT22;24559;53.590;9.764;2023-04-16T07:48:21;13.00;99.90
25334;DHT22;24559;53.590;9.764;2023-04-16T07:50:47;13.00;99.90
25334;DHT22;24559;53.590;9.764;2023-04-16T07:53:12;13.00;99.90
25334;DHT22;24559;53.590;9.764;2023-04-16T07:55:38;13.00;99.90
25334;DHT22;24559;53.590;9.764;2023-04-16T07:58:03;13.10;99.90
25334;DHT22;24559;53.590;9.764;2023-04-16T08:00:31;13.10;99.90
25334;DHT22;24559;53.590;9.764;2023-04-16T08:02:57;13.10;99.90
25334;DHT22;24559;53.590;9.764;2023-04-16T08:05:23;13.20;99.90
25334;DHT22;24559;53.590;9.764;2023-04-16T08:07:49;13.30;99.90
25334;DHT22;24559;53.590;9.764;2023-04-16T08:10:14;13.60;99.90
25334;DHT22;24559;53.590;9.764;2023-04-16T08:12:40;13.80;99.90
25334;DHT22;24559;53.590;9.764;2023-04-16T08:15:06;13.90;99.90
25334;DHT22;24559;53.590;9.764;2023-04-16T08:17:31;14.10;99.90
25334;DHT22;24559;53.590;9.764;2023-04-16T08:19:58;14.20;99.90
25334;DHT22;24559;53.590;9.764;2023-04-16T08:22:24;14.30;99.90
25334;DHT22;24559;53.590;9.764;2023-04-16T08:24:51;14.40;99.90
25334;DHT22;24559;53.590;9.764;2023-04-16T08:27:16;14.30;99.90
25334;DHT22;24559;53.590;9.764;2023-04-16T08:29:42;14.50;99.90
25334;DHT22;24559;53.590;9.764;2023-04-16T08:32:08;14.60;99.90
25334;DHT22;24559;53.590;9.764;2023-04-16T08:34:35;14.70;99.90
25334;DHT22;24559;53.590;9.764;2023-04-16T08:37:01;14.70;99.90
25334;DHT22;24559;53.590;9.764;2023-04-16T08:39:26;14.60;99.90
25334;DHT22;24559;53.590;9.764;2023-04-16T08:41:52;14.60;99.90
25334;DHT22;24559;53.590;9.764;2023-04-16T08:44:19;14.60;99.90
25334;DHT22;24559;53.590;9.764;2023-04-16T08:46:46;14.60;99.90
25334;DHT22;24559;53.590;9.764;2023-04-16T08:49:14;15.10;99.90
25334;DHT22;24559;53.590;9.764;2023-04-16T08:51:41;13.70;99.90
25334;DHT22;24559;53.590;9.764;2023-04-16T08:54:08;14.40;99.90
25334;DHT22;24559;53.590;9.764;2023-04-16T08:56:35;14.20;99.90
25334;DHT22;24559;53.590;9.764;2023-04-16T08:59:01;14.10;99.90
25334;DHT22;24559;53.590;9.764;2023-04-16T09:01:32;14.00;99.90
25334;DHT22;24559;53.590;9.764;2023-04-16T09:03:58;14.00;99.90
25334;DHT22;24559;53.590;9.764;2023-04-16T09:06:27;14.00;99.90
25334;DHT22;24559;53.590;9.764;2023-04-16T09:08:53;14.00;99.90
25334;DHT22;24559;53.590;9.764;2023-04-16T09:11:19;13.90;99.90
25334;DHT22;24559;53.590;9.764;2023-04-16T09:13:45;13.80;99.90
25334;DHT22;24559;53.590;9.764;2023-04-16T09:16:10;13.80;99.90
25334;DHT22;24559;53.590;9.764;2023-04-16T09:18:37;13.80;99.90
25334;DHT22;24559;53.590;9.764;2023-04-16T09:21:02;13.80;99.90
25334;DHT22;24559;53.590;9.764;2023-04-16T09:23:29;13.90;99.90
25334;DHT22;24559;53.590;9.764;2023-04-16T09:25:55;14.10;99.90
25334;DHT22;24559;53.590;9.764;2023-04-16T09:28:40;14.30;99.90
25334;DHT22;24559;53.590;9.764;2023-04-16T09:31:16;14.40;99.90
25334;DHT22;24559;53.590;9.764;2023-04-16T09:33:42;14.60;99.90
25334;DHT22;24559;53.590;9.764;2023-04-16T09:36:09;14.80;99.90
25334;DHT22;24559;53.590;9.764;2023-04-16T09:38:45;15.00;99.90
25334;DHT22;24559;53.590;9.764;2023-04-16T09:41:11;15.30;99.90
25334;DHT22;24559;53.590;9.764;2023-04-16T09:43:37;15.60;99.90
25334;DHT22;24559;53.590;9.764;2023-04-16T09:46:03;15.70;99.90
25334;DHT22;24559;53.590;9.764;2023-04-16T09:48:29;15.80;99.90
25334;DHT22;24559;53.590;9.764;2023-04-16T09:50:55;15.90;99.90
25334;DHT22;24559;53.590;9.764;2023-04-16T09:53:28;15.90;99.90
25334;DHT22;24559;53.590;9.764;2023-04-16T09:55:57;15.90;99.90
25334;DHT22;24559;53.590;9.764;2023-04-16T09:58:23;16.00;99.90
25334;DHT22;24559;53.590;9.764;2023-04-16T10:00:54;16.20;99.90
25334;DHT22;24559;53.590;9.764;2023-04-16T10:03:27;16.40;99.90
25334;DHT22;24559;53.590;9.764;2023-04-16T10:05:55;16.50;99.90
25334;DHT22;24559;53.590;9.764;2023-04-16T10:08:21;16.60;99.90
25334;DHT22;24559;53.590;9.764;2023-04-16T10:10:48;16.60;99.90
25334;DHT22;24559;53.590;9.764;2023-04-16T10:13:13;16.60;99.90
25334;DHT22;24559;53.590;9.764;2023-04-16T10:15:43;16.50;99.90
25334;DHT22;24559;53.590;9.764;2023-04-16T10:18:08;16.60;99.90
25334;DHT22;24559;53.590;9.764;2023-04-16T10:20:35;16.70;99.90
25334;DHT22;24559;53.590;9.764;2023-04-16T10:23:01;17.10;99.90
25334;DHT22;24559;53.590;9.764;2023-04-16T10:25:27;16.70;99.90
25334;DHT22;24559;53.590;9.764;2023-04-16T10:27:53;16.80;99.90
25334;DHT22;24559;53.590;9.764;2023-04-16T10:30:19;16.80;99.90
25334;DHT22;24559;53.590;9.764;2023-04-16T10:32:46;16.60;99.90
25334;DHT22;24559;53.590;9.764;2023-04-16T10:35:18;16.40;99.90
25334;DHT22;24559;53.590;9.764;2023-04-16T10:37:44;16.30;99.90
25334;DHT22;24559;53.590;9.764;2023-04-16T10:40:22;16.30;99.90
25334;DHT22;24559;53.590;9.764;2023-04-16T10:42:55;16.20;99.90
25334;DHT22;24559;53.590;9.764;2023-04-16T10:45:39;16.30;99.90
25334;DHT22;24559;53.590;9.764;2023-04-16T10:48:05;16.30;99.90
25334;DHT22;24559;53.590;9.764;2023-04-16T10:50:33;16.10;99.90
25334;DHT22;24559;53.590;9.764;2023-04-16T10:55:55;16.10;99.90
25334;DHT22;24559;53.590;9.764;2023-04-16T10:58:30;16.50;99.90
25334;DHT22;24559;53.590;9.764;2023-04-16T11:01:00;15.90;99.90
25334;DHT22;24559;53.590;9.764;2023-04-16T11:03:32;15.90;99.90
25334;DHT22;24559;53.590;9.764;2023-04-16T11:06:10;15.80;99.90
25334;DHT22;24559;53.590;9.764;2023-04-16T11:08:38;15.70;99.90
25334;DHT22;24559;53.590;9.764;2023-04-16T11:11:04;15.60;99.90
25334;DHT22;24559;53.590;9.764;2023-04-16T11:13:30;15.50;99.90
25334;DHT22;24559;53.590;9.764;2023-04-16T11:15:57;15.50;99.90
25334;DHT22;24559;53.590;9.764;2023-04-16T11:18:23;15.40;99.90
25334;DHT22;24559;53.590;9.764;2023-04-16T11:20:48;15.30;99.90
25334;DHT22;24559;53.590;9.764;2023-04-16T11:23:15;15.20;99.90
25334;DHT22;24559;53.590;9.764;2023-04-16T11:25:40;15.30;99.90
25334;DHT22;24559;53.590;9.764;2023-04-16T11:28:06;15.20;99.90
25334;DHT22;24559;53.590;9.764;2023-04-16T11:30:33;15.20;99.90
25334;DHT22;24559;53.590;9.764;2023-04-16T11:33:02;15.20;99.90
25334;DHT22;24559;53.590;9.764;2023-04-16T11:35:28;15.30;99.90
25334;DHT22;24559;53.590;9.764;2023-04-16T11:37:57;15.40;99.90
25334;DHT22;24559;53.590;9.764;2023-04-16T11:40:23;15.40;99.90
25334;DHT22;24559;53.590;9.764;2023-04-16T11:42:49;15.40;99.90
25334;DHT22;24559;53.590;9.764;2023-04-16T11:45:14;15.30;99.90
25334;DHT22;24559;53.590;9.764;2023-04-16T11:52:42;15.30;99.90
25334;DHT22;24559;53.590;9.764;2023-04-16T11:55:07;15.20;99.90
25334;DHT22;24559;53.590;9.764;2023-04-16T11:57:33;15.20;99.90
25334;DHT22;24559;53.590;9.764;2023-04-16T11:59:59;15.20;99.90
25334;DHT22;24559;53.590;9.764;2023-04-16T12:02:34;15.30;99.90
25334;DHT22;24559;53.590;9.764;2023-04-16T12:05:01;15.40;99.90
25334;DHT22;24559;53.590;9.764;2023-04-16T12:07:27;15.40;99.90
25334;DHT22;24559;53.590;9.764;2023-04-16T12:10:03;15.40;99.90
25334;DHT22;24559;53.590;9.764;2023-04-16T12:12:30;15.60;99.90
25334;DHT22;24559;53.590;9.764;2023-04-16T12:14:56;15.60;99.90
25334;DHT22;24559;53.590;9.764;2023-04-16T12:17:24;15.60;99.90
25334;DHT22;24559;53.590;9.764;2023-04-16T12:19:50;15.70;99.90
25334;DHT22;24559;53.590;9.764;2023-04-16T12:22:24;15.70;99.90
25334;DHT22;24559;53.590;9.764;2023-04-16T12:24:54;15.80;99.90
25334;DHT22;24559;53.590;9.764;2023-04-16T12:27:20;15.70;99.90
25334;DHT22;24559;53.590;9.764;2023-04-16T12:30:01;15.80;99.90
25334;DHT22;24559;53.590;9.764;2023-04-16T12:32:27;15.80;99.90
25334;DHT22;24559;53.590;9.764;2023-04-16T12:34:52;15.70;99.90
25334;DHT22;24559;53.590;9.764;2023-04-16T12:37:18;15.60;99.90
25334;DHT22;24559;53.590;9.764;2023-04-16T12:39:43;15.60;99.90
25334;DHT22;24559;53.590;9.764;2023-04-16T12:42:09;15.60;99.90
25334;DHT22;24559;53.590;9.764;2023-04-16T12:44:37;15.60;99.90
25334;DHT22;24559;53.590;9.764;2023-04-16T12:47:02;15.60;99.90
25334;DHT22;24559;53.590;9.764;2023-04-16T12:49:29;15.70;99.90
25334;DHT22;24559;53.590;9.764;2023-04-16T12:51:55;15.70;99.90
25334;DHT22;24559;53.590;9.764;2023-04-16T12:54:21;16.20;99.90
25334;DHT22;24559;53.590;9.764;2023-04-16T12:56:46;15.60;99.90
25334;DHT22;24559;53.590;9.764;2023-04-16T12:59:12;16.20;99.90
25334;DHT22;24559;53.590;9.764;2023-04-16T13:01:38;15.80;99.90
25334;DHT22;24559;53.590;9.764;2023-04-16T13:04:04;15.90;99.90
25334;DHT22;24559;53.590;9.764;2023-04-16T13:06:30;15.90;99.90
25334;DHT22;24559;53.590;9.764;2023-04-16T13:08:58;16.50;99.90
25334;DHT22;24559;53.590;9.764;2023-04-16T13:11:23;16.00;99.90
25334;DHT22;24559;53.590;9.764;2023-04-16T13:13:49;16.10;99.90
25334;DHT22;24559;53.590;9.764;2023-04-16T13:16:15;16.10;99.90
25334;DHT22;24559;53.590;9.764;2023-04-16T13:18:40;16.20;99.90
25334;DHT22;24559;53.590;9.764;2023-04-16T13:21:06;16.30;99.90
25334;DHT22;24559;53.590;9.764;2023-04-16T13:23:33;16.30;99.90
25334;DHT22;24559;53.590;9.764;2023-04-16T13:25:59;16.30;99.90
25334;DHT22;24559;53.590;9.764;2023-04-16T13:28:25;16.40;99.90
25334;DHT22;24559;53.590;9.764;2023-04-16T13:30:51;16.50;99.90
25334;DHT22;24559;53.590;9.764;2023-04-16T13:33:17;16.60;99.90
25334;DHT22;24559;53.590;9.764;2023-04-16T13:35:43;16.70;99.90
25334;DHT22;24559;53.590;9.764;2023-04-16T13:38:08;16.80;99.90
25334;DHT22;24559;53.590;9.764;2023-04-16T13:40:34;16.90;99.90
25334;DHT22;24559;53.590;9.764;2023-04-16T13:43:00;16.90;99.90
25334;DHT22;24559;53.590;9.764;2023-04-16T13:45:26;16.90;99.90
25334;DHT22;24559;53.590;9.764;2023-04-16T13:47:52;16.90;99.90
25334;DHT22;24559;53.590;9.764;2023-04-16T13:50:18;16.90;99.90
25334;DHT22;24559;53.590;9.764;2023-04-16T13:52:44;17.10;99.90
25334;DHT22;24559;53.590;9.764;2023-04-16T13:55:09;17.20;99.90
25334;DHT22;24559;53.590;9.764;2023-04-16T13:57:38;17.20;99.90
25334;DHT22;24559;53.590;9.764;2023-04-16T14:00:05;16.60;99.90
25334;DHT22;24559;53.590;9.764;2023-04-16T14:02:31;17.40;99.90
25334;DHT22;24559;53.590;9.764;2023-04-16T14:04:57;17.50;99.90
25334;DHT22;24559;53.590;9.764;2023-04-16T14:07:23;17.50;99.90
25334;DHT22;24559;53.590;9.764;2023-04-16T14:09:51;17.50;99.90
25334;DHT22;24559;53.590;9.764;2023-04-16T14:12:17;17.40;99.90
25334;DHT22;24559;53.590;9.764;2023-04-16T14:14:43;17.40;99.90
25334;DHT22;24559;53.590;9.764;2023-04-16T14:17:08;17.40;99.90
25334;DHT22;24559;53.590;9.764;2023-04-16T14:19:34;17.40;99.90
25334;DHT22;24559;53.590;9.764;2023-04-16T14:22:00;17.20;99.90
25334;DHT22;24559;53.590;9.764;2023-04-16T14:24:25;17.00;99.90
25334;DHT22;24559;53.590;9.764;2023-04-16T14:26:51;16.90;99.90
25334;DHT22;24559;53.590;9.764;2023-04-16T14:29:17;16.80;99.90
25334;DHT22;24559;53.590;9.764;2023-04-16T14:31:42;16.80;99.90
25334;DHT22;24559;53.590;9.764;2023-04-16T14:34:08;16.80;99.90
25334;DHT22;24559;53.590;9.764;2023-04-16T14:36:34;16.90;99.90
25334;DHT22;24559;53.590;9.764;2023-04-16T14:39:00;16.90;99.90
25334;DHT22;24559;53.590;9.764;2023-04-16T14:41:26;16.70;99.90
25334;DHT22;24559;53.590;9.764;2023-04-16T14:43:52;17.30;99.90
25334;DHT22;24559;53.590;9.764;2023-04-16T14:46:17;17.10;99.90
25334;DHT22;24559;53.590;9.764;2023-04-16T14:48:44;16.90;99.90
25334;DHT22;24559;53.590;9.764;2023-04-16T14:51:10;16.90;99.90
25334;DHT22;24559;53.590;9.764;2023-04-16T14:53:36;16.80;99.90
25334;DHT22;24559;53.590;9.764;2023-04-16T14:56:02;16.80;99.90
25334;DHT22;24559;53.590;9.764;2023-04-16T14:58:27;16.70;99.90
25334;DHT22;24559;53.590;9.764;2023-04-16T15:00:53;16.60;99.90
25334;DHT22;24559;53.590;9.764;2023-04-16T15:03:19;16.60;99.90
25334;DHT22;24559;53.590;9.764;2023-04-16T15:05:44;16.60;99.90
25334;DHT22;24559;53.590;9.764;2023-04-16T15:08:15;16.60;99.90
25334;DHT22;24559;53.590;9.764;2023-04-16T15:10:41;16.60;99.90
25334;DHT22;24559;53.590;9.764;2023-04-16T15:13:07;16.60;99.90
25334;DHT22;24559;53.590;9.764;2023-04-16T15:15:33;16.50;99.90
25334;DHT22;24559;53.590;9.764;2023-04-16T15:17:59;16.60;99.90
25334;DHT22;24559;53.590;9.764;2023-04-16T15:20:25;16.60;99.90
25334;DHT22;24559;53.590;9.764;2023-04-16T15:22:51;16.60;99.90
25334;DHT22;24559;53.590;9.764;2023-04-16T15:25:17;16.40;99.90
25334;DHT22;24559;53.590;9.764;2023-04-16T15:27:42;16.40;99.90
25334;DHT22;24559;53.590;9.764;2023-04-16T15:30:08;16.30;99.90
25334;DHT22;24559;53.590;9.764;2023-04-16T15:32:34;16.30;99.90
25334;DHT22;24559;53.590;9.764;2023-04-16T15:35:01;16.20;99.90